createdAt,value
2023-04-22T00:00:21.213Z,28.10
2023-04-22T00:02:49.700Z,26.00
2023-04-22T00:05:20.481Z,29.23
2023-04-22T00:07:49.374Z,27.43
2023-04-22T00:10:18.171Z,31.03
2023-04-22T00:12:46.498Z,27.90
2023-04-22T00:15:14.700Z,26.67
2023-04-22T00:17:46.052Z,27.30
2023-04-22T00:20:15.350Z,26.70
2023-04-22T00:22:43.554Z,28.50
2023-04-22T00:25:12.326Z,29.30
2023-04-22T00:27:40.623Z,30.07
2023-04-22T00:30:10.963Z,28.57
2023-04-22T00:32:39.401Z,27.00
2023-04-22T00:35:09.802Z,27.00
2023-04-22T00:37:38.729Z,28.47
2023-04-22T00:40:08.634Z,28.73
2023-04-22T00:42:38.812Z,28.30
2023-04-22T00:45:12.784Z,28.80
2023-04-22T00:47:41.198Z,28.93
2023-04-22T00:50:13.281Z,27.97
2023-04-22T00:52:41.943Z,27.90
2023-04-22T00:55:10.686Z,28.37
2023-04-22T00:57:39.526Z,26.73
2023-04-22T01:00:11.169Z,28.13
2023-04-22T01:02:40.374Z,28.30
2023-04-22T01:05:10.570Z,27.70
2023-04-22T01:07:40.519Z,28.63
2023-04-22T01:10:09.878Z,29.17
2023-04-22T01:12:38.371Z,28.10
2023-04-22T01:15:08.709Z,29.27
2023-04-22T01:17:37.227Z,28.80
2023-04-22T01:20:06.159Z,27.97
2023-04-22T01:22:40.403Z,27.90
2023-04-22T01:25:11.216Z,27.83
2023-04-22T01:27:40.605Z,28.40
2023-04-22T01:30:10.222Z,28.33
2023-04-22T01:32:41.316Z,26.90
2023-04-22T01:35:10.256Z,28.20
2023-04-22T01:37:38.636Z,28.57
2023-04-22T01:40:10.788Z,28.10
2023-04-22T01:42:39.283Z,28.20
2023-04-22T01:45:08.614Z,28.00
2023-04-22T01:47:37.352Z,27.93
2023-04-22T01:50:06.878Z,28.10
2023-04-22T01:52:35.200Z,28.17
2023-04-22T01:55:06.645Z,28.90
2023-04-22T01:57:44.736Z,29.73
2023-04-22T02:00:14.112Z,27.80
2023-04-22T02:02:44.599Z,28.73
2023-04-22T02:05:13.171Z,28.70
2023-04-22T02:07:41.488Z,28.00
2023-04-22T02:10:11.625Z,28.80
2023-04-22T02:12:41.389Z,28.17
2023-04-22T02:15:10.944Z,28.53
2023-04-22T02:17:39.422Z,28.30
2023-04-22T02:20:10.840Z,28.47
2023-04-22T02:22:40.056Z,28.60
2023-04-22T02:25:10.923Z,28.00
2023-04-22T02:27:40.711Z,28.60
2023-04-22T02:30:10.764Z,28.30
2023-04-22T02:32:40.240Z,28.17
2023-04-22T02:35:12.373Z,27.53
2023-04-22T02:37:43.195Z,28.33
2023-04-22T02:40:13.906Z,28.10
2023-04-22T02:42:43.886Z,27.50
2023-04-22T02:45:12.688Z,27.63
2023-04-22T02:47:41.260Z,27.70
2023-04-22T02:50:10.574Z,27.30
2023-04-22T02:52:39.045Z,29.97
2023-04-22T02:55:11.079Z,28.97
2023-04-22T02:57:39.482Z,27.90
2023-04-22T03:00:13.668Z,27.90
2023-04-22T03:02:42.174Z,29.10
2023-04-22T03:05:16.390Z,27.20
2023-04-22T03:07:47.563Z,26.53
2023-04-22T03:10:17.588Z,27.50
2023-04-22T03:12:46.166Z,26.73
2023-04-22T03:15:18.822Z,27.40
2023-04-22T03:17:49.263Z,27.23
2023-04-22T03:20:18.174Z,26.03
2023-04-22T03:22:46.598Z,28.03
2023-04-22T03:25:16.864Z,27.00
2023-04-22T03:27:51.206Z,28.73
2023-04-22T03:30:21.550Z,28.53
2023-04-22T03:32:50.253Z,29.50
2023-04-22T03:35:26.111Z,29.00
2023-04-22T03:37:55.739Z,29.10
2023-04-22T03:40:29.624Z,29.03
2023-04-22T03:42:58.517Z,27.60
2023-04-22T03:45:29.131Z,27.30
2023-04-22T03:48:16.518Z,27.70
2023-04-22T03:50:50.020Z,29.40
2023-04-22T03:53:19.186Z,27.90
2023-04-22T03:55:48.228Z,27.90
2023-04-22T03:58:18.925Z,27.90
2023-04-22T04:00:50.367Z,28.10
2023-04-22T04:03:20.955Z,27.37
2023-04-22T04:05:52.871Z,28.57
2023-04-22T04:08:23.698Z,29.07
2023-04-22T04:10:54.975Z,28.70
2023-04-22T04:13:24.668Z,29.60
2023-04-22T04:16:20.728Z,28.13
2023-04-22T04:18:55.386Z,27.97
2023-04-22T04:21:26.937Z,29.03
2023-04-22T04:23:57.193Z,28.00
2023-04-22T04:26:29.166Z,28.17
2023-04-22T04:29:10.093Z,29.07
2023-04-22T04:31:44.265Z,27.77
2023-04-22T04:34:20.314Z,27.03
2023-04-22T04:36:51.352Z,27.20
2023-04-22T04:39:29.267Z,23.80
2023-04-22T04:42:26.699Z,28.73
2023-04-22T04:45:02.526Z,25.43
2023-04-22T04:47:37.323Z,28.27
2023-04-22T04:50:15.827Z,27.67
2023-04-22T04:52:45.428Z,26.30
2023-04-22T04:55:14.101Z,28.40
2023-04-22T04:57:42.608Z,27.67
2023-04-22T05:00:18.538Z,26.10
2023-04-22T05:02:49.407Z,27.70
2023-04-22T05:05:19.109Z,27.57
2023-04-22T05:11:21.467Z,26.20
2023-04-22T05:14:52.693Z,26.47
2023-04-22T05:17:28.843Z,26.30
2023-04-22T05:19:58.747Z,26.10
2023-04-22T05:22:27.248Z,26.50
2023-04-22T05:25:03.293Z,27.37
2023-04-22T05:28:05.121Z,24.83
2023-04-22T05:34:26.858Z,26.97
2023-04-22T05:37:00.870Z,27.23
2023-04-22T05:43:28.458Z,27.43
2023-04-22T05:46:08.948Z,28.37
2023-04-22T05:48:40.609Z,26.67
2023-04-22T05:51:18.443Z,27.43
2023-04-22T05:53:51.710Z,26.67
2023-04-22T05:56:21.571Z,27.83
2023-04-22T05:58:50.128Z,26.60
2023-04-22T06:01:32.414Z,27.63
2023-04-22T06:04:12.825Z,24.80
2023-04-22T06:06:54.063Z,28.13
2023-04-22T06:09:27.819Z,26.33
2023-04-22T06:11:56.730Z,27.10
2023-04-22T06:14:25.316Z,26.97
2023-04-22T06:16:54.138Z,25.77
2023-04-22T06:19:23.264Z,26.93
2023-04-22T06:21:58.962Z,27.63
2023-04-22T06:24:47.727Z,27.23
2023-04-22T06:27:17.906Z,25.50
2023-04-22T06:29:46.700Z,27.17
2023-04-22T06:32:17.571Z,26.60
2023-04-22T06:34:46.014Z,27.37
2023-04-22T06:37:20.046Z,26.17
2023-04-22T06:39:56.181Z,25.63
2023-04-22T06:43:00.023Z,25.73
2023-04-22T06:45:35.045Z,22.73
2023-04-22T06:48:24.756Z,26.13
2023-04-22T06:51:15.866Z,27.20
2023-04-22T06:53:45.953Z,26.30
2023-04-22T07:02:42.709Z,27.20
2023-04-22T07:05:15.034Z,24.30
2023-04-22T07:07:57.569Z,26.53
2023-04-22T07:10:33.682Z,25.53
2023-04-22T07:13:22.762Z,26.03
2023-04-22T07:15:54.418Z,25.60
2023-04-22T07:18:41.895Z,25.60
2023-04-22T07:25:00.455Z,26.40
2023-04-22T07:30:35.361Z,25.53
2023-04-22T07:33:09.556Z,25.63
2023-04-22T07:35:41.284Z,26.13
2023-04-22T07:38:10.729Z,24.83
2023-04-22T07:40:41.008Z,25.37
2023-04-22T07:43:13.248Z,26.23
2023-04-22T07:45:43.509Z,24.60
2023-04-22T07:48:11.885Z,26.30
2023-04-22T07:50:44.957Z,24.63
2023-04-22T07:54:15.157Z,24.27
2023-04-22T07:56:48.476Z,23.10
2023-04-22T07:59:40.157Z,24.30
2023-04-22T08:02:17.514Z,23.63
2023-04-22T08:05:10.293Z,24.10
2023-04-22T08:07:41.945Z,24.23
2023-04-22T08:10:14.920Z,24.23
2023-04-22T08:17:03.842Z,24.47
2023-04-22T08:20:38.170Z,23.03
2023-04-22T08:23:14.568Z,24.60
2023-04-22T08:29:43.634Z,24.60
2023-04-22T08:32:22.004Z,23.80
2023-04-22T08:35:38.063Z,24.40
2023-04-22T08:38:15.096Z,24.10
2023-04-22T08:41:45.912Z,24.67
2023-04-22T08:44:40.988Z,24.90
2023-04-22T08:50:43.772Z,24.07
2023-04-22T08:53:18.215Z,24.00
2023-04-22T08:59:10.326Z,23.60
2023-04-22T09:02:02.454Z,22.80
2023-04-22T09:05:05.874Z,23.23
2023-04-22T09:12:05.441Z,24.10
2023-04-22T09:14:58.626Z,23.97
2023-04-22T09:17:44.973Z,23.90
2023-04-22T09:20:29.850Z,23.47
2023-04-22T09:26:35.182Z,23.20
2023-04-22T09:33:17.283Z,23.80
2023-04-22T09:36:08.619Z,22.80
2023-04-22T09:38:37.456Z,22.37
2023-04-22T09:41:25.780Z,21.50
2023-04-22T09:44:05.189Z,23.07
2023-04-22T09:46:42.071Z,22.40
2023-04-22T09:49:25.321Z,22.10
2023-04-22T09:52:16.278Z,21.43
2023-04-22T09:54:55.704Z,20.20
2023-04-22T09:57:37.118Z,19.43
2023-04-22T10:00:40.456Z,21.90
2023-04-22T10:03:29.649Z,20.73
2023-04-22T10:06:41.015Z,21.43
2023-04-22T10:09:23.974Z,20.70
2023-04-22T10:12:09.165Z,21.30
2023-04-22T10:18:11.685Z,22.40
2023-04-22T10:25:59.325Z,21.20
2023-04-22T10:28:40.866Z,20.23
2023-04-22T10:31:50.255Z,20.93
2023-04-22T10:34:22.408Z,20.47
2023-04-22T10:37:03.023Z,19.13
2023-04-22T10:40:48.656Z,20.73
2023-04-22T10:53:59.569Z,21.90
2023-04-22T11:16:42.004Z,20.30
2023-04-22T15:42:47.880Z,20.93
2023-04-22T15:50:14.040Z,20.27
2023-04-22T15:52:46.561Z,21.03
2023-04-22T15:55:31.557Z,21.00
2023-04-22T16:08:57.394Z,21.97
2023-04-22T16:14:24.328Z,21.30
2023-04-22T16:39:49.038Z,22.60
2023-04-22T16:46:26.735Z,22.77
2023-04-22T16:48:55.493Z,21.87
2023-04-22T16:51:36.921Z,22.90
2023-04-22T17:33:01.465Z,25.30
2023-04-22T17:35:42.038Z,24.50
2023-04-22T17:38:43.941Z,27.53
2023-04-22T17:41:14.966Z,26.80
2023-04-22T17:44:21.092Z,24.50
2023-04-22T17:46:57.636Z,24.30
2023-04-22T17:50:20.815Z,24.33
2023-04-22T17:53:10.429Z,25.70
2023-04-22T18:00:35.873Z,25.40
2023-04-22T18:03:58.371Z,24.80
2023-04-22T18:06:29.391Z,25.13
2023-04-22T18:09:03.773Z,24.20
2023-04-22T18:11:46.325Z,23.50
2023-04-22T18:14:24.547Z,24.60
2023-04-22T18:17:11.851Z,26.03
2023-04-22T18:23:24.281Z,26.83
2023-04-22T18:38:06.717Z,31.67
2023-04-22T18:40:35.374Z,31.13
2023-04-22T18:43:23.380Z,30.60
2023-04-22T18:46:17.901Z,32.70
2023-04-22T18:52:19.064Z,32.23
2023-04-22T18:58:45.702Z,30.70
2023-04-22T19:01:43.845Z,31.03
2023-04-22T19:04:19.031Z,30.23
2023-04-22T19:07:50.780Z,31.30
2023-04-22T19:14:21.082Z,37.40
2023-04-22T19:20:34.698Z,36.47
2023-04-22T19:23:04.551Z,34.13
2023-04-22T19:33:40.344Z,41.80
2023-04-22T19:36:17.349Z,42.30
2023-04-22T19:38:49.001Z,45.23
2023-04-22T19:41:28.534Z,46.50
2023-04-22T19:44:03.277Z,50.67
2023-04-22T19:46:37.089Z,50.90
2023-04-22T19:49:15.365Z,40.37
2023-04-22T19:52:01.148Z,39.00
2023-04-22T19:54:40.960Z,40.90
2023-04-22T19:57:25.534Z,41.23
2023-04-22T20:00:03.862Z,43.47
2023-04-22T20:02:46.116Z,39.97
2023-04-22T20:05:33.563Z,40.13
2023-04-22T20:08:12.654Z,40.43
2023-04-22T20:10:57.351Z,41.13
2023-04-22T20:13:34.389Z,39.90
2023-04-22T20:16:08.576Z,38.00
2023-04-22T20:18:38.007Z,39.40
2023-04-22T20:21:15.600Z,39.90
2023-04-22T20:23:57.164Z,41.20
2023-04-22T20:26:32.637Z,39.90
2023-04-22T20:29:22.145Z,39.67
2023-04-22T20:31:55.865Z,42.60
2023-04-22T20:35:02.121Z,40.00
2023-04-22T20:37:49.471Z,39.60
2023-04-22T20:40:44.881Z,38.27
2023-04-22T20:43:30.375Z,33.70
2023-04-22T20:46:05.541Z,37.33
2023-04-22T20:48:37.837Z,36.77
2023-04-22T20:51:18.800Z,37.10
2023-04-22T20:53:59.676Z,37.87
2023-04-22T20:56:44.932Z,38.93
2023-04-22T20:59:29.458Z,38.87
2023-04-22T21:02:07.189Z,38.20
2023-04-22T21:04:42.606Z,37.70
2023-04-22T21:07:18.157Z,38.10
2023-04-22T21:09:56.465Z,38.07
2023-04-22T21:12:36.264Z,41.30
2023-04-22T21:15:15.522Z,43.00
2023-04-22T21:17:51.868Z,37.43
2023-04-22T21:20:25.032Z,36.87
2023-04-22T21:23:00.119Z,36.70
2023-04-22T21:25:44.605Z,36.43
2023-04-22T21:28:16.481Z,36.37
2023-04-22T21:30:50.042Z,34.90
2023-04-22T21:33:36.068Z,35.30
2023-04-22T21:36:11.912Z,36.80
2023-04-22T21:38:43.161Z,36.70
2023-04-22T21:41:15.475Z,36.77
2023-04-22T21:43:53.180Z,34.60
2023-04-22T21:46:36.542Z,33.90
2023-04-22T21:49:11.081Z,34.00
2023-04-22T21:51:42.269Z,34.10
2023-04-22T21:54:14.216Z,34.57
2023-04-22T21:56:49.641Z,34.43
2023-04-22T21:59:23.275Z,34.00
2023-04-22T22:01:56.224Z,34.53
2023-04-22T22:04:27.589Z,33.27
2023-04-22T22:06:58.138Z,32.77
2023-04-22T22:09:28.714Z,32.93
2023-04-22T22:11:58.452Z,31.77
2023-04-22T22:14:29.109Z,31.93
2023-04-22T22:17:05.527Z,32.57
2023-04-22T22:19:39.419Z,32.10
2023-04-22T22:22:10.449Z,32.10
2023-04-22T22:24:44.486Z,34.67
2023-04-22T22:27:24.745Z,32.23
2023-04-22T22:29:53.408Z,32.77
2023-04-22T22:32:22.827Z,33.37
2023-04-22T22:34:53.783Z,33.13
2023-04-22T22:37:24.156Z,31.70
2023-04-22T22:39:57.022Z,33.37
2023-04-22T22:42:29.567Z,32.67
2023-04-22T22:44:58.535Z,33.80
2023-04-22T22:47:28.665Z,32.80
2023-04-22T22:49:59.135Z,33.37
2023-04-22T22:52:28.077Z,32.60
2023-04-22T22:54:57.298Z,32.03
2023-04-22T22:57:29.898Z,31.93
2023-04-22T22:59:58.280Z,33.60
2023-04-22T23:02:30.249Z,32.53
2023-04-22T23:05:00.196Z,32.53
2023-04-22T23:07:32.240Z,34.47
2023-04-22T23:10:04.461Z,33.37
2023-04-22T23:12:35.579Z,33.23
2023-04-22T23:15:04.887Z,33.90
2023-04-22T23:17:34.969Z,34.50
2023-04-22T23:20:11.791Z,34.83
2023-04-22T23:22:40.882Z,35.60
2023-04-22T23:25:11.856Z,35.07
2023-04-22T23:27:45.135Z,36.00
2023-04-22T23:30:15.820Z,36.93
2023-04-22T23:32:48.815Z,36.90
2023-04-22T23:35:17.642Z,36.03
2023-04-22T23:37:46.790Z,36.90
2023-04-22T23:40:17.742Z,36.53
2023-04-22T23:42:49.236Z,35.60
2023-04-22T23:45:21.267Z,37.30
2023-04-22T23:47:50.356Z,37.23
2023-04-22T23:50:19.279Z,34.73
2023-04-22T23:52:49.598Z,32.40
2023-04-22T23:55:18.767Z,35.77
2023-04-22T23:57:50.413Z,34.63
